< < Back
Terminal Aerodrome Forecast


Current Version              Previous Versions:   1  2  3  4  5  6  7  8  9  

Terminal Aerodrome Forecast

603
FTUS42 KCAE 240200 AAA
TAFCAE
TAF AMD
KCAE 240236Z 2403/2424 04005KT P6SM SKC
     FM241600 12008KT P6SM SKC=

Latest METAR

462
SAUS80 KWBC 240200
MTRCAE
METAR KCAE 240156Z 00000KT 10SM CLR 16/08 A2990 RMK AO2 SLP124
T01610083


USA.gov is the U.S. government's official web portal to all federal, state and local government web resources and services.